sensor_id;sensor_type;location;lat;lon;timestamp;P1;durP1;ratioP1;P2;durP2;ratioP2
64601;SDS011;51013;42.630;23.192;2022-10-31T00:00:44;1.67;;;1.30;;
64601;SDS011;51013;42.630;23.192;2022-10-31T00:03:22;1.70;;;1.00;;
64601;SDS011;51013;42.630;23.192;2022-10-31T00:15:15;1.90;;;0.32;;
64601;SDS011;51013;42.630;23.192;2022-10-31T00:17:42;1.23;;;0.90;;
64601;SDS011;51013;42.630;23.192;2022-10-31T00:20:11;1.15;;;1.08;;
64601;SDS011;51013;42.630;23.192;2022-10-31T00:22:39;0.60;;;0.60;;
64601;SDS011;51013;42.630;23.192;2022-10-31T00:25:08;0.85;;;0.73;;
64601;SDS011;51013;42.630;23.192;2022-10-31T00:27:35;0.77;;;0.57;;
64601;SDS011;51013;42.630;23.192;2022-10-31T00:30:03;2.88;;;1.08;;
64601;SDS011;51013;42.630;23.192;2022-10-31T00:32:31;0.63;;;0.63;;
64601;SDS011;51013;42.630;23.192;2022-10-31T00:35:00;0.70;;;0.70;;
64601;SDS011;51013;42.630;23.192;2022-10-31T00:37:42;11.95;;;2.38;;
64601;SDS011;51013;42.630;23.192;2022-10-31T00:40:10;6.00;;;4.00;;
64601;SDS011;51013;42.630;23.192;2022-10-31T00:42:38;6.53;;;4.07;;
64601;SDS011;51013;42.630;23.192;2022-10-31T00:45:07;13.18;;;6.10;;
64601;SDS011;51013;42.630;23.192;2022-10-31T00:47:34;16.55;;;8.10;;
64601;SDS011;51013;42.630;23.192;2022-10-31T00:50:02;11.30;;;7.30;;
64601;SDS011;51013;42.630;23.192;2022-10-31T00:52:29;8.75;;;7.13;;
64601;SDS011;51013;42.630;23.192;2022-10-31T00:54:58;13.15;;;8.23;;
64601;SDS011;51013;42.630;23.192;2022-10-31T00:57:26;10.98;;;7.70;;
64601;SDS011;51013;42.630;23.192;2022-10-31T00:59:53;11.85;;;9.25;;
64601;SDS011;51013;42.630;23.192;2022-10-31T01:02:20;14.60;;;5.43;;
64601;SDS011;51013;42.630;23.192;2022-10-31T01:04:48;11.02;;;4.68;;
64601;SDS011;51013;42.630;23.192;2022-10-31T01:07:15;12.70;;;4.95;;
64601;SDS011;51013;42.630;23.192;2022-10-31T01:09:45;6.03;;;5.43;;
64601;SDS011;51013;42.630;23.192;2022-10-31T01:12:17;7.90;;;4.47;;
64601;SDS011;51013;42.630;23.192;2022-10-31T01:14:46;8.45;;;6.07;;
64601;SDS011;51013;42.630;23.192;2022-10-31T01:17:15;7.45;;;5.32;;
64601;SDS011;51013;42.630;23.192;2022-10-31T01:19:42;8.65;;;5.10;;
64601;SDS011;51013;42.630;23.192;2022-10-31T01:22:10;6.40;;;4.28;;
64601;SDS011;51013;42.630;23.192;2022-10-31T01:24:37;8.07;;;4.72;;
64601;SDS011;51013;42.630;23.192;2022-10-31T01:27:05;8.73;;;3.78;;
64601;SDS011;51013;42.630;23.192;2022-10-31T01:29:34;9.73;;;6.13;;
64601;SDS011;51013;42.630;23.192;2022-10-31T01:32:01;9.13;;;4.90;;
64601;SDS011;51013;42.630;23.192;2022-10-31T01:34:28;11.43;;;5.97;;
64601;SDS011;51013;42.630;23.192;2022-10-31T01:36:56;5.70;;;4.22;;
64601;SDS011;51013;42.630;23.192;2022-10-31T01:39:23;3.03;;;2.42;;
64601;SDS011;51013;42.630;23.192;2022-10-31T01:41:51;4.80;;;3.65;;
64601;SDS011;51013;42.630;23.192;2022-10-31T01:47:20;5.28;;;3.17;;
64601;SDS011;51013;42.630;23.192;2022-10-31T01:50:03;4.43;;;2.20;;
64601;SDS011;51013;42.630;23.192;2022-10-31T01:52:36;8.05;;;3.63;;
64601;SDS011;51013;42.630;23.192;2022-10-31T01:55:07;3.60;;;3.22;;
64601;SDS011;51013;42.630;23.192;2022-10-31T01:57:40;4.85;;;4.38;;
64601;SDS011;51013;42.630;23.192;2022-10-31T02:00:13;12.65;;;2.53;;
64601;SDS011;51013;42.630;23.192;2022-10-31T02:02:42;15.55;;;2.50;;
64601;SDS011;51013;42.630;23.192;2022-10-31T02:05:14;6.32;;;3.67;;
64601;SDS011;51013;42.630;23.192;2022-10-31T02:07:45;3.78;;;3.08;;
64601;SDS011;51013;42.630;23.192;2022-10-31T02:10:19;5.03;;;2.80;;
64601;SDS011;51013;42.630;23.192;2022-10-31T02:12:49;3.83;;;2.30;;
64601;SDS011;51013;42.630;23.192;2022-10-31T02:15:20;6.57;;;2.70;;
64601;SDS011;51013;42.630;23.192;2022-10-31T02:17:48;2.22;;;1.70;;
64601;SDS011;51013;42.630;23.192;2022-10-31T02:20:16;12.43;;;2.50;;
64601;SDS011;51013;42.630;23.192;2022-10-31T02:23:02;3.05;;;1.98;;
64601;SDS011;51013;42.630;23.192;2022-10-31T02:25:56;1.85;;;1.27;;
64601;SDS011;51013;42.630;23.192;2022-10-31T02:28:40;1.73;;;1.45;;
64601;SDS011;51013;42.630;23.192;2022-10-31T02:31:26;1.08;;;0.95;;
64601;SDS011;51013;42.630;23.192;2022-10-31T02:34:02;1.35;;;1.25;;
64601;SDS011;51013;42.630;23.192;2022-10-31T02:36:40;2.47;;;2.10;;
64601;SDS011;51013;42.630;23.192;2022-10-31T02:39:16;1.08;;;0.98;;
64601;SDS011;51013;42.630;23.192;2022-10-31T02:41:49;1.13;;;0.63;;
64601;SDS011;51013;42.630;23.192;2022-10-31T02:44:28;0.50;;;0.45;;
64601;SDS011;51013;42.630;23.192;2022-10-31T02:47:08;1.70;;;1.17;;
64601;SDS011;51013;42.630;23.192;2022-10-31T02:49:40;4.30;;;1.30;;
64601;SDS011;51013;42.630;23.192;2022-10-31T02:52:18;2.00;;;1.80;;
64601;SDS011;51013;42.630;23.192;2022-10-31T02:54:47;10.73;;;1.63;;
64601;SDS011;51013;42.630;23.192;2022-10-31T02:57:17;1.48;;;1.20;;
64601;SDS011;51013;42.630;23.192;2022-10-31T02:59:47;0.35;;;0.32;;
64601;SDS011;51013;42.630;23.192;2022-10-31T03:02:31;2.65;;;1.40;;
64601;SDS011;51013;42.630;23.192;2022-10-31T03:05:15;0.88;;;0.50;;
64601;SDS011;51013;42.630;23.192;2022-10-31T03:08:06;3.03;;;0.90;;
64601;SDS011;51013;42.630;23.192;2022-10-31T03:10:41;3.03;;;2.15;;
64601;SDS011;51013;42.630;23.192;2022-10-31T03:13:13;3.58;;;1.00;;
64601;SDS011;51013;42.630;23.192;2022-10-31T03:15:48;11.68;;;2.17;;
64601;SDS011;51013;42.630;23.192;2022-10-31T03:18:20;1.10;;;0.90;;
64601;SDS011;51013;42.630;23.192;2022-10-31T03:20:55;6.55;;;1.48;;
64601;SDS011;51013;42.630;23.192;2022-10-31T03:23:27;1.30;;;0.73;;
64601;SDS011;51013;42.630;23.192;2022-10-31T03:25:56;1.48;;;1.38;;
64601;SDS011;51013;42.630;23.192;2022-10-31T03:28:28;0.35;;;0.35;;
64601;SDS011;51013;42.630;23.192;2022-10-31T03:30:58;1.30;;;1.05;;
64601;SDS011;51013;42.630;23.192;2022-10-31T03:33:28;4.43;;;2.70;;
64601;SDS011;51013;42.630;23.192;2022-10-31T03:35:59;1.15;;;1.00;;
64601;SDS011;51013;42.630;23.192;2022-10-31T03:38:30;6.57;;;1.35;;
64601;SDS011;51013;42.630;23.192;2022-10-31T03:41:01;1.77;;;1.38;;
64601;SDS011;51013;42.630;23.192;2022-10-31T03:43:30;2.40;;;1.63;;
64601;SDS011;51013;42.630;23.192;2022-10-31T03:46:03;1.05;;;0.95;;
64601;SDS011;51013;42.630;23.192;2022-10-31T03:48:32;4.18;;;1.42;;
64601;SDS011;51013;42.630;23.192;2022-10-31T03:51:04;4.00;;;1.42;;
64601;SDS011;51013;42.630;23.192;2022-10-31T03:53:36;1.40;;;1.27;;
64601;SDS011;51013;42.630;23.192;2022-10-31T03:56:10;3.83;;;2.35;;
64601;SDS011;51013;42.630;23.192;2022-10-31T03:58:42;1.38;;;1.00;;
64601;SDS011;51013;42.630;23.192;2022-10-31T04:01:16;1.10;;;1.00;;
64601;SDS011;51013;42.630;23.192;2022-10-31T04:03:48;0.98;;;0.95;;
64601;SDS011;51013;42.630;23.192;2022-10-31T04:06:17;1.33;;;1.10;;
64601;SDS011;51013;42.630;23.192;2022-10-31T04:08:48;0.80;;;0.73;;
64601;SDS011;51013;42.630;23.192;2022-10-31T04:11:22;1.95;;;1.27;;
64601;SDS011;51013;42.630;23.192;2022-10-31T04:13:53;0.80;;;0.70;;
64601;SDS011;51013;42.630;23.192;2022-10-31T04:16:23;1.13;;;0.85;;
64601;SDS011;51013;42.630;23.192;2022-10-31T04:18:54;1.27;;;1.23;;
64601;SDS011;51013;42.630;23.192;2022-10-31T04:21:26;1.33;;;1.23;;
64601;SDS011;51013;42.630;23.192;2022-10-31T04:23:54;2.38;;;1.50;;
64601;SDS011;51013;42.630;23.192;2022-10-31T04:26:22;17.17;;;1.92;;
64601;SDS011;51013;42.630;23.192;2022-10-31T04:28:49;2.83;;;1.10;;
64601;SDS011;51013;42.630;23.192;2022-10-31T04:31:17;1.88;;;1.20;;
64601;SDS011;51013;42.630;23.192;2022-10-31T04:33:44;0.88;;;0.70;;
64601;SDS011;51013;42.630;23.192;2022-10-31T04:36:13;3.85;;;2.58;;
64601;SDS011;51013;42.630;23.192;2022-10-31T04:38:40;1.55;;;1.08;;
64601;SDS011;51013;42.630;23.192;2022-10-31T04:41:07;0.65;;;0.65;;
64601;SDS011;51013;42.630;23.192;2022-10-31T04:43:34;2.10;;;1.45;;
64601;SDS011;51013;42.630;23.192;2022-10-31T04:46:01;1.13;;;0.98;;
64601;SDS011;51013;42.630;23.192;2022-10-31T04:48:29;2.72;;;1.77;;
64601;SDS011;51013;42.630;23.192;2022-10-31T04:50:58;2.28;;;1.42;;
64601;SDS011;51013;42.630;23.192;2022-10-31T04:53:27;0.80;;;0.80;;
64601;SDS011;51013;42.630;23.192;2022-10-31T04:55:55;6.43;;;2.35;;
64601;SDS011;51013;42.630;23.192;2022-10-31T04:58:24;2.03;;;1.23;;
64601;SDS011;51013;42.630;23.192;2022-10-31T05:00:51;0.93;;;0.68;;
64601;SDS011;51013;42.630;23.192;2022-10-31T05:07:18;0.80;;;0.75;;
64601;SDS011;51013;42.630;23.192;2022-10-31T05:09:49;1.52;;;1.40;;
64601;SDS011;51013;42.630;23.192;2022-10-31T07:38:55;0.20;;;0.20;;
64601;SDS011;51013;42.630;23.192;2022-10-31T07:41:23;0.88;;;0.47;;
64601;SDS011;51013;42.630;23.192;2022-10-31T07:43:50;0.75;;;0.75;;
64601;SDS011;51013;42.630;23.192;2022-10-31T07:46:17;0.38;;;0.32;;
64601;SDS011;51013;42.630;23.192;2022-10-31T07:48:44;0.20;;;0.20;;
64601;SDS011;51013;42.630;23.192;2022-10-31T07:51:11;0.65;;;0.30;;
64601;SDS011;51013;42.630;23.192;2022-10-31T07:53:38;0.52;;;0.40;;
64601;SDS011;51013;42.630;23.192;2022-10-31T07:56:07;2.20;;;0.82;;
64601;SDS011;51013;42.630;23.192;2022-10-31T07:58:34;0.57;;;0.47;;
64601;SDS011;51013;42.630;23.192;2022-10-31T08:01:00;0.65;;;0.65;;
64601;SDS011;51013;42.630;23.192;2022-10-31T08:03:27;0.75;;;0.25;;
64601;SDS011;51013;42.630;23.192;2022-10-31T08:05:55;2.13;;;0.22;;
64601;SDS011;51013;42.630;23.192;2022-10-31T08:08:23;1.85;;;0.40;;
64601;SDS011;51013;42.630;23.192;2022-10-31T08:10:53;0.95;;;0.82;;
64601;SDS011;51013;42.630;23.192;2022-10-31T08:13:21;1.30;;;0.93;;
64601;SDS011;51013;42.630;23.192;2022-10-31T08:15:48;0.85;;;0.43;;
64601;SDS011;51013;42.630;23.192;2022-10-31T08:18:17;0.30;;;0.25;;
64601;SDS011;51013;42.630;23.192;2022-10-31T08:20:44;0.10;;;0.10;;
64601;SDS011;51013;42.630;23.192;2022-10-31T08:23:11;4.80;;;1.23;;
64601;SDS011;51013;42.630;23.192;2022-10-31T08:25:39;0.60;;;0.55;;
64601;SDS011;51013;42.630;23.192;2022-10-31T08:28:08;0.95;;;0.88;;
64601;SDS011;51013;42.630;23.192;2022-10-31T08:30:38;0.17;;;0.17;;
64601;SDS011;51013;42.630;23.192;2022-10-31T08:33:06;0.15;;;0.15;;
64601;SDS011;51013;42.630;23.192;2022-10-31T08:35:36;0.70;;;0.60;;
64601;SDS011;51013;42.630;23.192;2022-10-31T08:38:03;0.28;;;0.28;;
64601;SDS011;51013;42.630;23.192;2022-10-31T08:40:31;0.47;;;0.43;;
64601;SDS011;51013;42.630;23.192;2022-10-31T08:43:01;0.77;;;0.30;;
64601;SDS011;51013;42.630;23.192;2022-10-31T08:45:35;3.42;;;0.77;;
64601;SDS011;51013;42.630;23.192;2022-10-31T08:48:05;2.88;;;0.98;;
64601;SDS011;51013;42.630;23.192;2022-10-31T08:50:34;0.10;;;0.10;;
64601;SDS011;51013;42.630;23.192;2022-10-31T08:53:02;0.03;;;0.03;;
64601;SDS011;51013;42.630;23.192;2022-10-31T08:55:30;0.20;;;0.20;;
64601;SDS011;51013;42.630;23.192;2022-10-31T08:57:58;0.20;;;0.20;;
64601;SDS011;51013;42.630;23.192;2022-10-31T09:00:25;0.73;;;0.38;;
64601;SDS011;51013;42.630;23.192;2022-10-31T09:02:56;1.08;;;0.20;;
64601;SDS011;51013;42.630;23.192;2022-10-31T09:05:25;0.80;;;0.55;;
64601;SDS011;51013;42.630;23.192;2022-10-31T09:07:55;0.90;;;0.80;;
64601;SDS011;51013;42.630;23.192;2022-10-31T09:10:24;0.75;;;0.50;;
64601;SDS011;51013;42.630;23.192;2022-10-31T09:12:54;0.52;;;0.40;;
64601;SDS011;51013;42.630;23.192;2022-10-31T09:15:22;0.20;;;0.20;;
64601;SDS011;51013;42.630;23.192;2022-10-31T09:17:49;0.28;;;0.20;;
64601;SDS011;51013;42.630;23.192;2022-10-31T09:20:16;0.40;;;0.38;;
64601;SDS011;51013;42.630;23.192;2022-10-31T09:22:44;0.55;;;0.30;;
64601;SDS011;51013;42.630;23.192;2022-10-31T09:25:11;0.43;;;0.20;;
64601;SDS011;51013;42.630;23.192;2022-10-31T09:27:38;1.85;;;0.85;;
64601;SDS011;51013;42.630;23.192;2022-10-31T09:30:06;0.32;;;0.30;;
64601;SDS011;51013;42.630;23.192;2022-10-31T09:32:33;0.10;;;0.10;;
64601;SDS011;51013;42.630;23.192;2022-10-31T09:35:00;0.55;;;0.20;;
64601;SDS011;51013;42.630;23.192;2022-10-31T09:37:33;0.68;;;0.55;;
64601;SDS011;51013;42.630;23.192;2022-10-31T09:40:04;0.95;;;0.63;;
64601;SDS011;51013;42.630;23.192;2022-10-31T09:42:38;0.28;;;0.28;;
64601;SDS011;51013;42.630;23.192;2022-10-31T09:45:28;2.65;;;0.73;;
64601;SDS011;51013;42.630;23.192;2022-10-31T09:48:17;0.38;;;0.22;;
64601;SDS011;51013;42.630;23.192;2022-10-31T09:50:53;0.45;;;0.45;;
64601;SDS011;51013;42.630;23.192;2022-10-31T09:53:26;2.20;;;0.60;;
64601;SDS011;51013;42.630;23.192;2022-10-31T09:56:02;0.47;;;0.35;;
64601;SDS011;51013;42.630;23.192;2022-10-31T09:58:33;1.85;;;1.00;;
64601;SDS011;51013;42.630;23.192;2022-10-31T10:01:09;0.20;;;0.13;;
64601;SDS011;51013;42.630;23.192;2022-10-31T10:03:55;0.57;;;0.30;;
64601;SDS011;51013;42.630;23.192;2022-10-31T10:06:28;0.08;;;0.08;;
64601;SDS011;51013;42.630;23.192;2022-10-31T10:09:00;0.30;;;0.30;;
64601;SDS011;51013;42.630;23.192;2022-10-31T10:11:34;1.25;;;0.40;;
64601;SDS011;51013;42.630;23.192;2022-10-31T10:14:14;0.30;;;0.28;;
64601;SDS011;51013;42.630;23.192;2022-10-31T10:16:58;0.70;;;0.55;;
64601;SDS011;51013;42.630;23.192;2022-10-31T10:19:48;0.70;;;0.55;;
64601;SDS011;51013;42.630;23.192;2022-10-31T10:22:26;0.30;;;0.30;;
64601;SDS011;51013;42.630;23.192;2022-10-31T10:25:07;1.13;;;0.70;;
64601;SDS011;51013;42.630;23.192;2022-10-31T10:27:47;0.40;;;0.30;;
64601;SDS011;51013;42.630;23.192;2022-10-31T10:30:20;0.15;;;0.15;;
64601;SDS011;51013;42.630;23.192;2022-10-31T10:32:49;0.77;;;0.20;;
64601;SDS011;51013;42.630;23.192;2022-10-31T10:35:23;7.43;;;0.32;;
64601;SDS011;51013;42.630;23.192;2022-10-31T10:37:56;0.20;;;0.20;;
64601;SDS011;51013;42.630;23.192;2022-10-31T10:40:26;0.28;;;0.28;;
64601;SDS011;51013;42.630;23.192;2022-10-31T10:42:58;0.20;;;0.20;;
64601;SDS011;51013;42.630;23.192;2022-10-31T10:45:59;1.98;;;0.47;;
64601;SDS011;51013;42.630;23.192;2022-10-31T10:48:50;0.17;;;0.10;;
64601;SDS011;51013;42.630;23.192;2022-10-31T10:51:23;0.47;;;0.40;;
64601;SDS011;51013;42.630;23.192;2022-10-31T10:54:07;0.43;;;0.43;;
64601;SDS011;51013;42.630;23.192;2022-10-31T10:56:48;0.40;;;0.10;;
64601;SDS011;51013;42.630;23.192;2022-10-31T10:59:26;0.50;;;0.32;;
64601;SDS011;51013;42.630;23.192;2022-10-31T11:01:54;0.30;;;0.20;;
64601;SDS011;51013;42.630;23.192;2022-10-31T11:04:25;0.68;;;0.35;;
64601;SDS011;51013;42.630;23.192;2022-10-31T11:06:59;0.63;;;0.40;;
64601;SDS011;51013;42.630;23.192;2022-10-31T11:09:27;0.32;;;0.32;;
64601;SDS011;51013;42.630;23.192;2022-10-31T11:11:54;0.40;;;0.38;;
64601;SDS011;51013;42.630;23.192;2022-10-31T11:14:22;0.63;;;0.50;;
64601;SDS011;51013;42.630;23.192;2022-10-31T11:16:53;1.88;;;0.88;;
64601;SDS011;51013;42.630;23.192;2022-10-31T11:19:23;0.10;;;0.10;;
64601;SDS011;51013;42.630;23.192;2022-10-31T11:21:53;0.10;;;0.10;;
64601;SDS011;51013;42.630;23.192;2022-10-31T11:24:21;0.30;;;0.20;;
64601;SDS011;51013;42.630;23.192;2022-10-31T11:26:51;0.20;;;0.17;;
64601;SDS011;51013;42.630;23.192;2022-10-31T11:29:20;0.52;;;0.30;;
64601;SDS011;51013;42.630;23.192;2022-10-31T11:31:50;0.28;;;0.20;;
64601;SDS011;51013;42.630;23.192;2022-10-31T11:34:25;1.00;;;0.40;;
64601;SDS011;51013;42.630;23.192;2022-10-31T11:36:56;4.00;;;0.20;;
64601;SDS011;51013;42.630;23.192;2022-10-31T11:39:31;0.63;;;0.28;;
64601;SDS011;51013;42.630;23.192;2022-10-31T11:42:01;1.80;;;0.40;;
64601;SDS011;51013;42.630;23.192;2022-10-31T11:44:34;0.25;;;0.20;;
64601;SDS011;51013;42.630;23.192;2022-10-31T11:47:03;0.22;;;0.22;;
64601;SDS011;51013;42.630;23.192;2022-10-31T11:49:37;0.45;;;0.28;;
64601;SDS011;51013;42.630;23.192;2022-10-31T11:52:07;0.13;;;0.13;;
64601;SDS011;51013;42.630;23.192;2022-10-31T11:54:41;0.38;;;0.28;;
64601;SDS011;51013;42.630;23.192;2022-10-31T11:57:22;1.67;;;0.60;;
64601;SDS011;51013;42.630;23.192;2022-10-31T11:59:51;0.77;;;0.50;;
64601;SDS011;51013;42.630;23.192;2022-10-31T12:02:21;0.25;;;0.20;;
64601;SDS011;51013;42.630;23.192;2022-10-31T12:04:50;0.73;;;0.30;;
64601;SDS011;51013;42.630;23.192;2022-10-31T12:07:22;0.20;;;0.20;;
64601;SDS011;51013;42.630;23.192;2022-10-31T12:09:50;0.25;;;0.25;;
64601;SDS011;51013;42.630;23.192;2022-10-31T12:12:27;1.15;;;0.40;;
64601;SDS011;51013;42.630;23.192;2022-10-31T12:15:25;0.10;;;0.10;;
64601;SDS011;51013;42.630;23.192;2022-10-31T12:18:00;0.70;;;0.40;;
64601;SDS011;51013;42.630;23.192;2022-10-31T12:20:48;0.10;;;0.10;;
64601;SDS011;51013;42.630;23.192;2022-10-31T12:23:28;0.30;;;0.30;;
64601;SDS011;51013;42.630;23.192;2022-10-31T12:26:07;0.43;;;0.32;;
64601;SDS011;51013;42.630;23.192;2022-10-31T12:28:48;0.22;;;0.20;;
64601;SDS011;51013;42.630;23.192;2022-10-31T12:31:32;0.50;;;0.28;;
64601;SDS011;51013;42.630;23.192;2022-10-31T12:34:20;0.32;;;0.32;;
64601;SDS011;51013;42.630;23.192;2022-10-31T12:37:13;0.63;;;0.55;;
64601;SDS011;51013;42.630;23.192;2022-10-31T12:39:51;0.50;;;0.10;;
64601;SDS011;51013;42.630;23.192;2022-10-31T12:45:08;0.50;;;0.50;;
64601;SDS011;51013;42.630;23.192;2022-10-31T12:48:10;0.40;;;0.30;;
64601;SDS011;51013;42.630;23.192;2022-10-31T12:51:02;1.02;;;0.80;;
64601;SDS011;51013;42.630;23.192;2022-10-31T12:53:41;1.17;;;0.35;;
64601;SDS011;51013;42.630;23.192;2022-10-31T12:56:25;0.30;;;0.25;;
64601;SDS011;51013;42.630;23.192;2022-10-31T12:59:04;0.57;;;0.40;;
64601;SDS011;51013;42.630;23.192;2022-10-31T13:01:38;2.40;;;0.60;;
64601;SDS011;51013;42.630;23.192;2022-10-31T13:04:14;0.28;;;0.28;;
64601;SDS011;51013;42.630;23.192;2022-10-31T13:06:47;0.40;;;0.35;;
64601;SDS011;51013;42.630;23.192;2022-10-31T13:09:17;0.95;;;0.40;;
64601;SDS011;51013;42.630;23.192;2022-10-31T13:11:47;0.88;;;0.70;;
64601;SDS011;51013;42.630;23.192;2022-10-31T13:14:21;0.32;;;0.32;;
64601;SDS011;51013;42.630;23.192;2022-10-31T13:16:51;0.20;;;0.20;;
64601;SDS011;51013;42.630;23.192;2022-10-31T13:19:22;1.02;;;0.50;;
64601;SDS011;51013;42.630;23.192;2022-10-31T13:21:57;0.40;;;0.30;;
64601;SDS011;51013;42.630;23.192;2022-10-31T13:24:30;0.50;;;0.40;;
64601;SDS011;51013;42.630;23.192;2022-10-31T13:27:02;0.63;;;0.40;;
64601;SDS011;51013;42.630;23.192;2022-10-31T13:29:40;0.50;;;0.35;;
64601;SDS011;51013;42.630;23.192;2022-10-31T13:32:13;2.03;;;0.75;;
64601;SDS011;51013;42.630;23.192;2022-10-31T13:34:42;0.70;;;0.60;;
64601;SDS011;51013;42.630;23.192;2022-10-31T13:37:18;1.05;;;0.65;;
64601;SDS011;51013;42.630;23.192;2022-10-31T13:40:09;1.83;;;1.20;;
64601;SDS011;51013;42.630;23.192;2022-10-31T13:42:51;0.63;;;0.30;;
64601;SDS011;51013;42.630;23.192;2022-10-31T13:45:24;0.63;;;0.63;;
64601;SDS011;51013;42.630;23.192;2022-10-31T13:47:55;0.57;;;0.50;;
64601;SDS011;51013;42.630;23.192;2022-10-31T13:50:24;1.70;;;1.05;;
64601;SDS011;51013;42.630;23.192;2022-10-31T13:53:08;12.95;;;1.20;;
64601;SDS011;51013;42.630;23.192;2022-10-31T13:55:39;0.65;;;0.50;;
64601;SDS011;51013;42.630;23.192;2022-10-31T13:58:21;1.25;;;0.90;;
64601;SDS011;51013;42.630;23.192;2022-10-31T14:03:43;0.60;;;0.52;;
64601;SDS011;51013;42.630;23.192;2022-10-31T14:06:12;2.10;;;0.98;;
64601;SDS011;51013;42.630;23.192;2022-10-31T14:08:47;0.95;;;0.40;;
64601;SDS011;51013;42.630;23.192;2022-10-31T14:11:19;0.40;;;0.30;;
64601;SDS011;51013;42.630;23.192;2022-10-31T14:13:51;0.52;;;0.40;;
64601;SDS011;51013;42.630;23.192;2022-10-31T14:16:20;0.43;;;0.30;;
64601;SDS011;51013;42.630;23.192;2022-10-31T14:18:51;0.32;;;0.32;;
64601;SDS011;51013;42.630;23.192;2022-10-31T14:21:29;0.45;;;0.35;;
64601;SDS011;51013;42.630;23.192;2022-10-31T14:23:59;0.32;;;0.32;;
64601;SDS011;51013;42.630;23.192;2022-10-31T14:26:32;0.40;;;0.40;;
64601;SDS011;51013;42.630;23.192;2022-10-31T14:32:01;0.60;;;0.40;;
64601;SDS011;51013;42.630;23.192;2022-10-31T14:34:37;2.28;;;0.63;;
64601;SDS011;51013;42.630;23.192;2022-10-31T14:40:00;0.73;;;0.50;;
64601;SDS011;51013;42.630;23.192;2022-10-31T14:42:59;0.63;;;0.50;;
64601;SDS011;51013;42.630;23.192;2022-10-31T14:45:43;0.65;;;0.52;;
64601;SDS011;51013;42.630;23.192;2022-10-31T14:51:47;0.52;;;0.17;;
64601;SDS011;51013;42.630;23.192;2022-10-31T14:54:19;1.08;;;0.90;;
64601;SDS011;51013;42.630;23.192;2022-10-31T14:56:56;0.75;;;0.55;;
64601;SDS011;51013;42.630;23.192;2022-10-31T14:59:31;1.38;;;0.77;;
64601;SDS011;51013;42.630;23.192;2022-10-31T15:02:02;0.47;;;0.32;;
64601;SDS011;51013;42.630;23.192;2022-10-31T15:04:37;1.85;;;1.02;;
64601;SDS011;51013;42.630;23.192;2022-10-31T15:07:06;1.35;;;0.70;;
64601;SDS011;51013;42.630;23.192;2022-10-31T15:09:39;0.90;;;0.82;;
64601;SDS011;51013;42.630;23.192;2022-10-31T15:12:21;0.85;;;0.50;;
64601;SDS011;51013;42.630;23.192;2022-10-31T15:14:50;0.90;;;0.82;;
64601;SDS011;51013;42.630;23.192;2022-10-31T15:17:18;3.58;;;0.95;;
64601;SDS011;51013;42.630;23.192;2022-10-31T15:19:46;1.00;;;0.73;;
64601;SDS011;51013;42.630;23.192;2022-10-31T15:22:14;0.65;;;0.60;;
64601;SDS011;51013;42.630;23.192;2022-10-31T15:24:43;1.02;;;0.50;;
64601;SDS011;51013;42.630;23.192;2022-10-31T15:27:12;1.40;;;1.25;;
64601;SDS011;51013;42.630;23.192;2022-10-31T15:29:49;1.88;;;0.68;;
64601;SDS011;51013;42.630;23.192;2022-10-31T15:32:18;5.65;;;2.60;;
64601;SDS011;51013;42.630;23.192;2022-10-31T15:34:48;2.30;;;1.90;;
64601;SDS011;51013;42.630;23.192;2022-10-31T15:37:17;8.27;;;2.10;;
64601;SDS011;51013;42.630;23.192;2022-10-31T15:39:48;5.55;;;2.30;;
64601;SDS011;51013;42.630;23.192;2022-10-31T15:42:19;6.28;;;2.00;;
64601;SDS011;51013;42.630;23.192;2022-10-31T15:47:19;2.33;;;2.07;;
64601;SDS011;51013;42.630;23.192;2022-10-31T15:49:50;2.85;;;1.77;;
64601;SDS011;51013;42.630;23.192;2022-10-31T15:52:22;5.07;;;3.25;;
64601;SDS011;51013;42.630;23.192;2022-10-31T15:54:58;3.75;;;2.28;;
64601;SDS011;51013;42.630;23.192;2022-10-31T15:57:32;5.45;;;3.40;;
64601;SDS011;51013;42.630;23.192;2022-10-31T16:00:02;4.68;;;2.47;;
64601;SDS011;51013;42.630;23.192;2022-10-31T16:02:33;7.35;;;4.43;;
64601;SDS011;51013;42.630;23.192;2022-10-31T16:05:14;8.07;;;4.78;;
64601;SDS011;51013;42.630;23.192;2022-10-31T16:07:47;19.73;;;12.70;;
64601;SDS011;51013;42.630;23.192;2022-10-31T16:10:26;31.23;;;20.48;;
64601;SDS011;51013;42.630;23.192;2022-10-31T16:12:53;20.20;;;13.57;;
64601;SDS011;51013;42.630;23.192;2022-10-31T16:15:24;14.63;;;8.70;;
64601;SDS011;51013;42.630;23.192;2022-10-31T16:17:54;13.25;;;5.72;;
64601;SDS011;51013;42.630;23.192;2022-10-31T16:20:23;9.48;;;6.65;;
64601;SDS011;51013;42.630;23.192;2022-10-31T16:22:53;6.70;;;5.40;;
64601;SDS011;51013;42.630;23.192;2022-10-31T16:25:24;9.43;;;4.78;;
64601;SDS011;51013;42.630;23.192;2022-10-31T16:28:03;15.40;;;5.97;;
64601;SDS011;51013;42.630;23.192;2022-10-31T16:30:39;8.95;;;5.43;;
64601;SDS011;51013;42.630;23.192;2022-10-31T16:33:20;9.35;;;4.30;;
64601;SDS011;51013;42.630;23.192;2022-10-31T16:35:56;4.68;;;3.50;;
64601;SDS011;51013;42.630;23.192;2022-10-31T16:38:26;7.22;;;5.57;;
64601;SDS011;51013;42.630;23.192;2022-10-31T16:40:53;4.95;;;3.78;;
64601;SDS011;51013;42.630;23.192;2022-10-31T16:43:23;4.07;;;3.65;;
64601;SDS011;51013;42.630;23.192;2022-10-31T16:45:56;4.38;;;2.88;;
64601;SDS011;51013;42.630;23.192;2022-10-31T16:48:24;7.32;;;4.07;;
64601;SDS011;51013;42.630;23.192;2022-10-31T16:50:55;3.22;;;2.55;;
64601;SDS011;51013;42.630;23.192;2022-10-31T16:53:25;5.57;;;3.58;;
64601;SDS011;51013;42.630;23.192;2022-10-31T16:55:57;6.22;;;2.67;;
64601;SDS011;51013;42.630;23.192;2022-10-31T16:58:31;4.53;;;2.55;;
64601;SDS011;51013;42.630;23.192;2022-10-31T17:03:34;3.58;;;2.03;;
64601;SDS011;51013;42.630;23.192;2022-10-31T17:06:02;3.72;;;2.03;;
64601;SDS011;51013;42.630;23.192;2022-10-31T17:08:34;6.32;;;3.80;;
64601;SDS011;51013;42.630;23.192;2022-10-31T17:11:02;3.40;;;2.33;;
64601;SDS011;51013;42.630;23.192;2022-10-31T17:13:31;6.85;;;2.78;;
64601;SDS011;51013;42.630;23.192;2022-10-31T17:16:05;3.80;;;1.77;;
64601;SDS011;51013;42.630;23.192;2022-10-31T17:18:40;1.27;;;0.98;;
64601;SDS011;51013;42.630;23.192;2022-10-31T17:21:14;3.38;;;2.65;;
64601;SDS011;51013;42.630;23.192;2022-10-31T17:23:44;1.73;;;1.58;;
64601;SDS011;51013;42.630;23.192;2022-10-31T17:26:15;1.70;;;1.27;;
64601;SDS011;51013;42.630;23.192;2022-10-31T17:28:43;2.22;;;1.45;;
64601;SDS011;51013;42.630;23.192;2022-10-31T17:31:17;1.55;;;0.95;;
64601;SDS011;51013;42.630;23.192;2022-10-31T17:33:47;3.90;;;2.13;;
64601;SDS011;51013;42.630;23.192;2022-10-31T17:36:14;2.60;;;1.60;;
64601;SDS011;51013;42.630;23.192;2022-10-31T17:38:42;3.72;;;2.30;;
64601;SDS011;51013;42.630;23.192;2022-10-31T17:41:12;2.75;;;1.13;;
64601;SDS011;51013;42.630;23.192;2022-10-31T17:43:56;2.60;;;1.55;;
64601;SDS011;51013;42.630;23.192;2022-10-31T17:46:31;1.63;;;0.93;;
64601;SDS011;51013;42.630;23.192;2022-10-31T17:49:14;2.35;;;1.75;;
64601;SDS011;51013;42.630;23.192;2022-10-31T17:51:46;3.10;;;2.25;;
64601;SDS011;51013;42.630;23.192;2022-10-31T17:54:14;10.27;;;3.03;;
64601;SDS011;51013;42.630;23.192;2022-10-31T17:56:53;6.32;;;2.63;;
64601;SDS011;51013;42.630;23.192;2022-10-31T17:59:54;2.05;;;1.90;;
64601;SDS011;51013;42.630;23.192;2022-10-31T18:02:24;4.82;;;1.80;;
64601;SDS011;51013;42.630;23.192;2022-10-31T18:04:51;4.93;;;2.53;;
64601;SDS011;51013;42.630;23.192;2022-10-31T18:07:18;5.32;;;3.35;;